createdAt,value
2022-08-26T08:12:44.824Z,8.70
2022-08-26T08:44:29.787Z,4.50
2022-08-26T09:50:45.722Z,2.53
2022-08-26T10:14:38.646Z,2.67
2022-08-26T10:19:13.181Z,2.60
2022-08-26T10:23:47.708Z,2.13
2022-08-26T10:28:18.081Z,2.10
2022-08-26T10:50:00.008Z,2.05
2022-08-26T11:11:03.379Z,2.60
2022-08-26T11:14:01.364Z,2.40
2022-08-26T11:16:52.736Z,3.17
2022-08-26T11:19:59.471Z,2.50
2022-08-26T11:22:47.836Z,2.20
2022-08-26T11:25:33.512Z,2.13
2022-08-26T11:28:40.490Z,2.38
2022-08-26T11:31:30.605Z,2.17
2022-08-26T11:34:37.975Z,2.30
2022-08-26T11:37:49.033Z,2.95
2022-08-26T11:40:42.021Z,2.45
2022-08-26T11:43:29.860Z,2.67
2022-08-26T11:46:28.591Z,2.55
2022-08-26T11:49:14.932Z,2.33
2022-08-26T11:52:11.584Z,2.20
2022-08-26T11:55:14.357Z,2.47
2022-08-26T11:58:01.925Z,2.10
2022-08-26T12:01:09.809Z,2.63
2022-08-26T12:03:58.252Z,2.28
2022-08-26T12:06:51.044Z,1.98
2022-08-26T12:09:50.080Z,2.35
2022-08-26T12:12:38.652Z,2.17
2022-08-26T12:15:24.801Z,2.60
2022-08-26T12:18:29.706Z,1.70
2022-08-26T12:21:24.427Z,2.17
2022-08-26T12:24:10.214Z,1.88
2022-08-26T12:27:14.574Z,2.40
2022-08-26T12:30:06.750Z,2.25
2022-08-26T12:33:15.783Z,2.08
2022-08-26T12:36:08.830Z,1.92
2022-08-26T12:38:58.290Z,2.45
2022-08-26T12:42:15.563Z,1.60
2022-08-26T12:45:06.602Z,2.28
2022-08-26T12:47:56.170Z,2.40
2022-08-26T12:50:48.716Z,2.53
2022-08-26T12:53:41.646Z,2.50
2022-08-26T12:56:30.971Z,2.05
2022-08-26T12:59:26.600Z,2.30
2022-08-26T13:02:35.677Z,2.53
2022-08-26T13:05:24.246Z,2.30
2022-08-26T13:08:34.274Z,2.20
2022-08-26T13:11:24.697Z,2.17
2022-08-26T13:14:23.876Z,2.08
2022-08-26T13:17:10.245Z,2.03
2022-08-26T13:19:59.003Z,2.60
2022-08-26T13:22:51.700Z,2.30
2022-08-26T13:25:45.026Z,2.17
2022-08-26T13:28:30.477Z,2.30
2022-08-26T13:31:16.632Z,1.90
2022-08-26T13:34:04.166Z,2.28
2022-08-26T13:36:54.579Z,2.65
2022-08-26T13:39:41.924Z,2.40
2022-08-26T13:42:27.361Z,1.73
2022-08-26T13:45:13.058Z,2.30
2022-08-26T13:48:00.362Z,1.83
2022-08-26T13:50:47.120Z,2.10
2022-08-26T13:53:32.710Z,2.30
2022-08-26T13:56:18.936Z,1.75
2022-08-26T13:59:05.597Z,2.20
2022-08-26T14:01:51.866Z,2.78
2022-08-26T14:04:37.337Z,2.25
2022-08-26T14:07:23.767Z,2.10
2022-08-26T14:10:09.847Z,2.70
2022-08-26T14:12:56.535Z,2.00
2022-08-26T14:15:42.005Z,2.10
2022-08-26T14:18:32.604Z,2.20
2022-08-26T14:21:18.888Z,2.38
2022-08-26T14:24:06.187Z,1.90
2022-08-26T14:26:51.588Z,2.03
2022-08-26T14:29:37.072Z,2.05
2022-08-26T14:32:25.873Z,2.40
2022-08-26T14:35:16.753Z,2.22
2022-08-26T14:38:02.249Z,2.00
2022-08-26T14:40:47.589Z,2.55
2022-08-26T14:43:33.546Z,2.30
2022-08-26T14:46:18.996Z,2.13
2022-08-26T14:49:08.498Z,2.20
2022-08-26T14:51:56.410Z,2.08
2022-08-26T14:54:41.943Z,2.40
2022-08-26T14:57:27.530Z,2.10
2022-08-26T15:00:13.726Z,1.90
2022-08-26T15:02:59.877Z,2.72
2022-08-26T15:05:48.092Z,2.40
2022-08-26T15:08:36.701Z,1.98
2022-08-26T15:11:22.397Z,2.03
2022-08-26T15:14:19.058Z,3.22
2022-08-26T15:17:05.573Z,2.90
2022-08-26T15:19:51.645Z,2.22
2022-08-26T15:22:38.925Z,2.35
2022-08-26T15:25:24.317Z,2.58
2022-08-26T15:28:10.233Z,2.65
2022-08-26T15:30:56.033Z,2.40
2022-08-26T15:33:42.695Z,2.00
2022-08-26T15:36:29.411Z,2.17
2022-08-26T15:39:17.133Z,2.08
2022-08-26T15:42:02.686Z,2.25
2022-08-26T15:44:48.567Z,2.20
2022-08-26T15:47:38.111Z,2.20
2022-08-26T15:50:53.580Z,2.53
2022-08-26T15:53:39.060Z,2.15
2022-08-26T15:56:32.639Z,2.10
2022-08-26T15:59:21.674Z,2.35
2022-08-26T16:02:07.628Z,2.40
2022-08-26T16:04:53.181Z,1.92
2022-08-26T16:07:40.490Z,2.53
2022-08-26T16:10:26.084Z,1.95
2022-08-26T16:13:14.741Z,2.35
2022-08-26T16:16:01.737Z,2.60
2022-08-26T16:18:49.676Z,2.08
2022-08-26T16:21:35.385Z,2.13
2022-08-26T16:24:28.398Z,3.15
2022-08-26T16:27:15.839Z,2.63
2022-08-26T16:30:01.258Z,1.92
2022-08-26T16:32:47.104Z,1.83
2022-08-26T16:35:32.520Z,2.10
2022-08-26T16:38:18.326Z,2.47
2022-08-26T16:41:04.925Z,2.33
2022-08-26T16:43:50.716Z,2.10
2022-08-26T16:46:36.691Z,2.38
2022-08-26T16:49:22.685Z,1.90
2022-08-26T16:52:09.530Z,2.10
2022-08-26T16:54:55.046Z,1.77
2022-08-26T16:57:43.235Z,2.13
2022-08-26T17:00:34.597Z,2.50
2022-08-26T17:03:19.967Z,2.25
2022-08-26T17:06:05.822Z,1.80
2022-08-26T17:08:52.486Z,2.22
2022-08-26T17:11:39.166Z,2.38
2022-08-26T17:14:25.485Z,2.05
2022-08-26T17:17:11.122Z,2.55
2022-08-26T17:19:57.445Z,1.67
2022-08-26T17:22:46.678Z,1.95
2022-08-26T17:25:32.610Z,1.88
2022-08-26T17:28:18.136Z,2.28
2022-08-26T17:31:04.680Z,2.25
2022-08-26T17:33:53.547Z,1.90
2022-08-26T17:36:40.018Z,2.15
2022-08-26T17:39:25.526Z,2.03
2022-08-26T17:42:12.036Z,2.60
2022-08-26T17:44:58.035Z,1.98
2022-08-26T17:47:45.233Z,2.30
2022-08-26T17:50:31.708Z,3.00
2022-08-26T17:53:19.171Z,2.45
2022-08-26T17:56:11.775Z,2.13
2022-08-26T17:59:02.495Z,3.15
2022-08-26T18:01:50.037Z,3.17
2022-08-26T18:04:35.690Z,3.60
2022-08-26T18:07:21.423Z,3.47
2022-08-26T18:10:13.033Z,3.40
2022-08-26T18:17:28.551Z,3.50
2022-08-26T18:20:16.850Z,3.00
2022-08-26T18:23:02.283Z,2.97
2022-08-26T18:25:47.805Z,4.38
2022-08-26T18:28:33.141Z,8.75
2022-08-26T18:31:20.876Z,9.80
2022-08-26T18:34:06.728Z,9.05
2022-08-26T18:36:52.176Z,8.15
2022-08-26T18:39:37.690Z,11.85
2022-08-26T18:42:24.039Z,11.88
2022-08-26T18:45:10.449Z,9.40
2022-08-26T18:48:03.467Z,5.85
2022-08-26T18:50:50.127Z,4.43
2022-08-26T18:53:37.466Z,3.85
2022-08-26T18:56:24.193Z,4.18
2022-08-26T18:59:10.860Z,4.75
2022-08-26T19:01:56.618Z,5.05
2022-08-26T19:04:42.602Z,4.75
2022-08-26T19:07:28.198Z,4.82
2022-08-26T19:10:13.825Z,4.38
2022-08-26T19:13:00.821Z,4.70
2022-08-26T19:15:48.439Z,4.13
2022-08-26T19:18:33.806Z,3.40
2022-08-26T19:21:21.865Z,3.28
2022-08-26T19:24:15.197Z,3.45
2022-08-26T19:27:02.043Z,3.28
2022-08-26T19:29:48.081Z,3.85
2022-08-26T19:32:33.238Z,4.22
2022-08-26T19:35:18.993Z,4.40
2022-08-26T19:38:04.899Z,4.85
2022-08-26T19:40:50.311Z,4.43
2022-08-26T19:43:35.772Z,5.13
2022-08-26T19:46:23.353Z,4.78
2022-08-26T19:49:09.130Z,4.38
2022-08-26T19:51:54.712Z,4.00
2022-08-26T19:54:41.257Z,3.63
2022-08-26T19:57:27.075Z,3.05
2022-08-26T20:00:16.038Z,3.30
2022-08-26T20:03:02.261Z,3.63
2022-08-26T20:05:48.818Z,3.13
2022-08-26T20:08:35.515Z,3.08
2022-08-26T20:11:23.863Z,3.28
2022-08-26T20:14:10.569Z,3.47
2022-08-26T20:16:56.106Z,3.33
2022-08-26T20:20:00.748Z,3.50
2022-08-26T20:22:46.335Z,2.90
2022-08-26T20:25:34.431Z,3.83
2022-08-26T20:28:19.943Z,3.22
2022-08-26T20:31:05.567Z,3.70
2022-08-26T20:33:51.720Z,3.80
2022-08-26T20:36:38.831Z,3.13
2022-08-26T20:39:25.427Z,4.20
2022-08-26T20:42:19.863Z,3.30
2022-08-26T20:45:08.303Z,3.92
2022-08-26T20:47:54.382Z,3.38
2022-08-26T20:50:39.879Z,3.60
2022-08-26T20:53:27.409Z,3.70
2022-08-26T20:56:14.472Z,4.57
2022-08-26T20:59:01.208Z,4.72
2022-08-26T21:01:48.082Z,4.05
2022-08-26T21:04:34.850Z,4.05
2022-08-26T21:07:20.798Z,4.65
2022-08-26T21:10:08.459Z,4.45
2022-08-26T21:12:53.999Z,3.95
2022-08-26T21:15:39.514Z,4.28
2022-08-26T21:18:25.549Z,3.50
2022-08-26T21:21:11.955Z,3.83
2022-08-26T21:23:58.591Z,3.90
2022-08-26T21:26:44.560Z,3.63
2022-08-26T21:29:30.355Z,3.53
2022-08-26T21:32:16.030Z,3.83
2022-08-26T21:35:01.623Z,3.72
2022-08-26T21:37:47.525Z,3.22
2022-08-26T21:40:32.864Z,3.63
2022-08-26T21:43:34.891Z,3.13
2022-08-26T21:46:23.227Z,3.28
2022-08-26T21:49:11.331Z,4.00
2022-08-26T21:51:57.143Z,3.60
2022-08-26T21:54:42.720Z,4.40
2022-08-26T21:57:35.257Z,4.10
2022-08-26T22:00:21.279Z,4.13
2022-08-26T22:03:06.554Z,3.85
2022-08-26T22:05:52.340Z,4.15
2022-08-26T22:08:38.263Z,3.83
2022-08-26T22:11:24.887Z,4.00
2022-08-26T22:14:11.002Z,4.00
2022-08-26T22:16:58.418Z,3.90
2022-08-26T22:19:46.051Z,4.15
2022-08-26T22:22:32.167Z,3.70
2022-08-26T22:25:17.851Z,3.92
2022-08-26T22:28:04.659Z,4.20
2022-08-26T22:30:50.782Z,4.22
2022-08-26T22:33:36.439Z,4.05
2022-08-26T22:36:24.387Z,5.07
2022-08-26T22:39:11.078Z,4.20
2022-08-26T22:41:57.214Z,3.83
2022-08-26T22:44:43.831Z,4.22
2022-08-26T22:47:29.496Z,3.80
2022-08-26T22:50:14.662Z,5.13
2022-08-26T22:53:00.334Z,4.70
2022-08-26T22:55:46.513Z,4.22
2022-08-26T22:58:32.354Z,5.78
2022-08-26T23:01:18.085Z,4.65
2022-08-26T23:04:04.705Z,3.70
2022-08-26T23:06:50.255Z,4.05
2022-08-26T23:09:35.937Z,3.55
2022-08-26T23:12:22.084Z,4.15
2022-08-26T23:15:09.943Z,3.90
2022-08-26T23:17:58.410Z,3.65
2022-08-26T23:20:55.932Z,3.75
2022-08-26T23:23:42.007Z,4.28
2022-08-26T23:26:27.899Z,3.65
2022-08-26T23:29:15.584Z,4.50
2022-08-26T23:32:01.508Z,3.65
2022-08-26T23:34:55.861Z,4.20
2022-08-26T23:37:44.369Z,3.60
2022-08-26T23:40:33.610Z,3.97
2022-08-26T23:43:19.068Z,4.60
2022-08-26T23:46:04.711Z,4.10
2022-08-26T23:48:50.586Z,4.65
2022-08-26T23:51:55.609Z,3.47
2022-08-26T23:54:41.488Z,4.95
2022-08-26T23:57:27.238Z,4.10
